Latest Coastal Weather Observations for Cairns

IDQ60701

Issued at 1:02 pm EST Thursday 30 May 2024 (issued every 10 minutes, with the page automatically refreshed every 10 minutes)

About coastal observations | Map of coastal stations | Coastal observations for QLD | Marine services | Other Formats
Station Details ID: 031011 Name: CAIRNS AERO Lat: -16.87 Lon: 145.75 Height: 2.22 m
Data from the previous 72 hours. | See also: Recent months at Cairns
Date/Time
EST
Wind Sea
Height
m
Swell Vis
km
Cloud Weather Temp
°C
Press
MSL
hPa
Rain since
9am
mm
Dir  Spd
kts
Gust
kts
Height
m
Period
s
Dir
30/01:00pm SE 13 17 - - - - 10 Partly cloudy - 26.5 1017.0 0.2
30/12:30pm SE 13 19 - - - - 10 Partly cloudy - 27.4 1017.5 0.2
30/12:00pm SE 15 19 - - - - 10 Partly cloudy - 25.8 1018.0 0.2
30/11:30am SE 14 18 - - - - 10 Partly cloudy - 27.1 1018.1 0.2
30/11:00am SE 16 22 - - - - 10 Partly cloudy - 26.6 1018.3 0.2
30/10:30am SSE 11 16 - - - - 10 Partly cloudy - 26.1 1018.6 0.2
30/10:00am SSE 12 17 - - - - 10 Partly cloudy - 25.6 1018.9 0.0
30/09:30am SSE 10 14 - - - - 10 Partly cloudy - 25.4 1018.9 0.0
30/09:00am SSE 8 12 - - - - 10 Cloudy - 24.1 1018.8 3.2
30/08:30am SSE 8 12 - - - - 10 Partly cloudy - 23.8 1018.6 3.2
30/08:00am SSE 9 13 - - - - 10 Partly cloudy - 23.2 1018.4 3.2
30/07:30am S 10 14 - - - - 10 Partly cloudy - 22.6 1018.3 3.2
30/07:00am S 10 16 - - - - 10 Partly cloudy - 22.4 1018.0 3.2
30/06:30am S 10 18 - - - - 10 Cloudy - 22.1 1017.6 3.2
30/06:00am S 11 17 - - - - 10 Mostly cloudy Recent precip. 21.7 1017.7 3.2
30/05:30am SSE 12 18 - - - - 10 Partly cloudy - 22.2 1017.2 3.2
30/05:00am S 10 14 - - - - 10 Partly cloudy - 22.5 1016.9 3.2
30/04:30am S 9 13 - - - - 10 Partly cloudy - 22.2 1016.8 3.2
30/04:00am S 10 14 - - - - 10 Partly cloudy - 22.4 1016.8 3.2
30/03:30am S 11 16 - - - - 10 Partly cloudy - 22.7 1016.8 3.2
30/03:00am S 10 15 - - - - 10 Cloudy Showers 22.3 1016.8 3.2
30/02:30am S 11 16 - - - - 10 Partly cloudy - 22.5 1016.9 3.0
30/02:00am S 11 17 - - - - 10 Partly cloudy - 22.5 1017.2 3.0
30/01:30am S 9 15 - - - - 10 Partly cloudy - 22.5 1017.4 3.0
30/01:00am S 11 16 - - - - 10 Partly cloudy - 22.8 1017.4 2.8
30/12:30am S 10 15 - - - - 10 Partly cloudy - 22.6 1017.6 2.8
30/12:00am SSE 9 13 - - - - 10 Partly cloudy Showers 22.2 1018.0 2.8
 
Date/Time
EST
Wind Sea
Height
m
Swell Vis
km
Cloud Weather Temp
°C
Press
MSL
hPa
Rain since
9am
mm
Dir  Spd
kts
Gust
kts
Height
m
Period
s
Dir
29/11:30pm S 9 13 - - - - 10 Partly cloudy - 22.6 1018.0 2.8
29/11:00pm SSE 8 14 - - - - 10 Partly cloudy - 22.5 1018.2 2.8
29/10:30pm SSE 9 13 - - - - 10 Partly cloudy - 22.6 1018.4 2.8
29/10:00pm SSE 10 15 - - - - 10 Partly cloudy - 22.2 1018.6 2.8
29/09:30pm S 11 18 - - - - 10 Partly cloudy - 22.1 1018.5 2.4
29/09:00pm S 8 11 - - - - 10 Cloudy Showers 22.0 1018.7 2.2
29/08:47pm S 9 15 - - - - 10 Partly cloudy - 21.9 1018.7 2.2
29/08:35pm S 10 15 - - - - 6 Partly cloudy - 21.7 1018.7 2.2
29/08:30pm S 10 15 - - - - 10 Partly cloudy - 21.7 1018.7 2.0
29/08:00pm S 10 17 - - - - 10 Partly cloudy - 22.2 1018.3 1.4
29/07:30pm S 11 16 - - - - 10 Partly cloudy - 21.8 1018.1 1.4
29/07:00pm S 11 16 - - - - 10 Partly cloudy - 22.2 1017.7 1.2
29/06:30pm S 11 16 - - - - 10 Partly cloudy - 22.3 1017.5 1.2
29/06:00pm SSE 11 15 - - - - 10 Cloudy Recent precip. 22.7 1017.4 1.2
29/05:30pm SSE 9 17 - - - - 10 Partly cloudy - 23.1 1017.2 1.2
29/05:00pm SSE 11 15 - - - - 10 Partly cloudy - 23.5 1016.8 1.2
29/04:30pm SSE 8 11 - - - - 10 Partly cloudy - 23.7 1016.7 1.2
29/04:00pm SE 11 18 - - - - 10 Partly cloudy - 23.4 1016.5 1.0
29/03:30pm SSE 11 17 - - - - 8 Partly cloudy - 23.3 1016.4 1.0
29/03:00pm S 9 16 - - - - 10 Cloudy Recent precip. 24.5 1016.3 0.6
29/02:30pm SSE 11 18 - - - - 10 Partly cloudy - 25.4 1016.2 0.6
29/02:00pm SE 11 16 - - - - 10 Partly cloudy - 26.2 1016.5 0.4
29/01:30pm SSE 10 14 - - - - 10 Partly cloudy - 25.3 1016.9 0.4
29/01:00pm SSE 9 15 - - - - 10 Partly cloudy - 24.6 1017.2 0.4
29/12:30pm S 8 11 - - - - 10 Partly cloudy - 23.5 1017.6 0.4
29/12:00pm S 10 16 - - - - 10 Cloudy - 24.0 1018.0 0.4
29/11:30am SE 14 19 - - - - 10 Partly cloudy - 24.8 1018.3 0.4
29/11:00am SE 14 20 - - - - 8 Partly cloudy - 24.1 1018.6 0.4
29/10:30am SE 10 15 - - - - 10 Partly cloudy - 24.7 1018.9 0.2
29/10:00am SSE 11 16 - - - - 10 Partly cloudy - 25.1 1018.6 0.0
29/09:30am S 9 13 - - - - 10 Partly cloudy - 24.2 1018.9 0.0
29/09:00am SSE 9 15 - - - - 10 Cloudy - 24.0 1018.4 6.4
29/08:30am SSE 12 16 - - - - 10 Partly cloudy - 23.6 1018.4 6.4
29/08:00am SSE 9 15 - - - - 10 - - 23.2 1018.0 6.4
29/07:30am SSE 10 16 - - - - 10 - - 23.0 1017.7 6.4
29/07:00am SSE 10 16 - - - - 10 - - 22.4 1017.4 6.4
29/06:30am S 11 18 - - - - 10 - - 22.4 1017.4 6.4
29/06:00am SSE 10 14 - - - - 10 Cloudy - 22.1 1016.8 6.4
29/05:30am S 11 15 - - - - 10 Partly cloudy - 22.1 1016.4 6.4
29/05:00am S 10 16 - - - - 10 Partly cloudy - 21.9 1016.4 6.4
29/04:30am S 9 16 - - - - 10 Partly cloudy - 22.1 1016.6 6.4
29/04:00am SSE 10 15 - - - - 10 Partly cloudy - 22.0 1016.3 6.2
29/03:30am SSE 7 10 - - - - 10 Partly cloudy - 22.5 1016.4 6.0
29/03:00am S 9 13 - - - - 10 Cloudy - 22.5 1016.6 6.0
29/02:30am S 10 15 - - - - 10 Partly cloudy - 22.6 1017.1 6.0
29/02:00am S 10 16 - - - - 10 Partly cloudy - 22.2 1017.0 6.0
29/01:30am S 9 13 - - - - 10 Partly cloudy - 21.9 1017.2 6.0
29/01:00am S 9 13 - - - - 10 Partly cloudy - 22.6 1017.3 5.8
29/12:30am S 9 14 - - - - 10 Partly cloudy - 22.4 1017.5 5.8
29/12:00am SSE 8 11 - - - - 10 Mostly cloudy Showers 21.9 1017.8 5.8
 
Date/Time
EST
Wind Sea
Height
m
Swell Vis
km
Cloud Weather Temp
°C
Press
MSL
hPa
Rain since
9am
mm
Dir  Spd
kts
Gust
kts
Height
m
Period
s
Dir
28/11:43pm SSE 7 10 - - - - 10 Partly cloudy - 21.7 1017.9 5.8
28/11:30pm SSE 10 17 - - - - 4 Partly cloudy - 21.5 1018.0 5.8
28/11:16pm SSE 10 14 - - - - 5 Partly cloudy - 21.7 1018.1 3.6
28/11:00pm S 10 16 - - - - 9 Partly cloudy - 22.0 1018.0 2.2
28/10:30pm SSE 10 16 - - - - 10 Partly cloudy - 22.8 1018.1 2.0
28/10:00pm SSE 14 18 - - - - 10 Partly cloudy - 22.5 1017.7 2.0
28/09:30pm SSE 12 16 - - - - 10 Partly cloudy - 22.4 1017.8 2.0
28/09:00pm SSE 10 14 - - - - 10 Cloudy Rain 22.5 1018.1 2.0
28/08:30pm SSE 10 16 - - - - 10 Partly cloudy - 23.1 1017.7 1.8
28/08:00pm SSE 10 14 - - - - 10 Partly cloudy - 23.4 1017.9 1.8
28/07:30pm SSE 11 16 - - - - 10 Partly cloudy - 23.2 1017.3 1.8
28/07:00pm SSE 10 15 - - - - 10 Partly cloudy - 23.1 1017.3 1.8
28/06:30pm SSE 10 16 - - - - 10 Partly cloudy - 23.3 1017.2 1.8
28/06:00pm SSE 11 15 - - - - 10 Cloudy - 23.6 1016.9 1.8
28/05:30pm SSE 10 15 - - - - 10 Partly cloudy - 23.6 1016.6 1.8
28/05:00pm SSE 13 20 - - - - 10 Partly cloudy - 23.5 1016.4 1.8
28/04:30pm SSE 13 19 - - - - 10 Partly cloudy - 24.7 1016.2 1.4
28/04:00pm SE 16 22 - - - - 10 Partly cloudy - 23.9 1016.0 1.4
28/03:30pm SE 14 19 - - - - 10 Partly cloudy - 23.2 1016.0 1.4
28/03:28pm SE 14 19 - - - - 10 Partly cloudy - 23.4 1016.0 1.2
28/03:07pm SE 17 21 - - - - 6 Partly cloudy - 23.3 1015.7 1.2
28/03:00pm SE 16 21 - - - - 10 Cloudy Rain 24.5 1015.6 1.0
28/02:30pm SE 15 21 - - - - 10 Partly cloudy - 26.0 1015.7 1.0
28/02:00pm SE 15 18 - - - - 10 Cloudy - 25.7 1016.1 1.0
28/01:30pm SE 17 24 - - - - 10 Partly cloudy - 25.2 1016.3 1.0
28/01:00pm SE 17 21 - - - - 10 - - 26.9 1016.7 1.0
28/12:30pm SE 19 25 - - - - 10 - - 26.8 1016.9 1.0
28/12:00pm SE 21 27 - - - - 10 - - 26.1 1017.5 1.0
28/11:30am SE 16 21 - - - - 10 Partly cloudy - 25.9 1017.6 1.0
28/11:00am SSE 9 12 - - - - 10 Partly cloudy - 24.3 1018.6 1.0
28/10:30am SSE 8 13 - - - - 10 Partly cloudy - 23.2 1018.7 1.0
28/10:00am S 8 13 - - - - 10 Partly cloudy - 22.6 1018.9 0.8
28/09:47am SSE 11 18 - - - - 10 Partly cloudy - 22.3 1019.0 0.8
28/09:30am SSE 10 14 - - - - 3 Partly cloudy - 22.0 1019.0 0.8
28/09:16am SSE 11 15 - - - - 6 Partly cloudy - 22.3 1018.6 0.2
28/09:00am S 10 15 - - - - 10 Cloudy Rain 22.4 1018.8 6.2
28/08:37am SSE 11 15 - - - - 10 Partly cloudy - 22.1 1018.4 6.2
28/08:30am SSE 10 14 - - - - 7 Partly cloudy - 21.8 1018.3 6.2
28/08:12am SE 9 13 - - - - 5 Partly cloudy - 21.8 1018.5 5.6
28/08:00am SSE 10 14 - - - - 10 Partly cloudy - 22.7 1018.5 5.0
28/07:30am SSE 10 14 - - - - 10 Partly cloudy - 22.4 1018.0 5.0
28/07:00am SSE 13 19 - - - - 10 Partly cloudy - 22.3 1017.2 5.0
28/06:30am SSE 12 15 - - - - 10 Partly cloudy - 21.9 1017.3 5.0
28/06:00am SSE 9 14 - - - - 10 Partly cloudy - 22.0 1017.4 5.0
28/05:30am SSE 10 15 - - - - 10 - - 22.1 1017.0 5.0
28/05:00am SSE 11 15 - - - - 10 Partly cloudy - 21.9 1016.4 5.0
28/04:30am S 10 16 - - - - 10 Partly cloudy - 22.0 1016.6 5.0
28/04:00am SSE 10 14 - - - - 10 Partly cloudy - 21.8 1016.1 5.0
28/03:30am SSE 10 14 - - - - 10 Partly cloudy - 22.1 1016.3 5.0
28/03:00am SSE 11 17 - - - - 10 Partly cloudy Recent precip. 22.1 1016.3 5.0
28/02:30am SSE 12 17 - - - - 10 Partly cloudy - 22.1 1016.3 5.0
28/02:00am SSE 10 17 - - - - 10 Partly cloudy - 21.9 1016.4 5.0
28/01:45am S 10 16 - - - - 10 Partly cloudy - 21.8 1016.6 5.0
28/01:34am SSE 8 13 - - - - 10 Partly cloudy - 21.9 1016.8 4.8
28/01:30am SSE 8 11 - - - - 10 Partly cloudy - 21.8 1016.9 4.8
28/01:00am S 10 16 - - - - 10 Partly cloudy - 21.7 1016.7 4.8
28/12:30am S 11 17 - - - - 10 Partly cloudy - 21.7 1017.0 4.6
28/12:00am S 11 17 - - - - 10 Cloudy Showers 21.5 1017.2 4.4
 
Date/Time
EST
Wind Sea
Height
m
Swell Vis
km
Cloud Weather Temp
°C
Press
MSL
hPa
Rain since
9am
mm
Dir  Spd
kts
Gust
kts
Height
m
Period
s
Dir
27/11:35pm SSE 9 11 - - - - 10 Partly cloudy - 21.4 1017.7 4.4
27/11:32pm SSE 9 13 - - - - 10 Partly cloudy - 21.4 1017.7 4.4
27/11:30pm SSE 9 13 - - - - 10 Partly cloudy - 21.3 1017.7 4.4
27/11:20pm SSE 10 15 - - - - 6 Partly cloudy - 21.3 1017.7 4.4
27/11:18pm SSE 10 15 - - - - 6 Partly cloudy - 21.3 1017.7 4.4
27/11:00pm SSE 10 14 - - - - 4 Partly cloudy - 21.3 1017.7 2.8
27/10:57pm SSE 11 16 - - - - 5 Partly cloudy - 21.4 1017.7 2.8
27/10:54pm SSE 11 16 - - - - 6 Partly cloudy - 21.4 1017.8 2.4
27/10:30pm S 12 20 - - - - 10 Partly cloudy - 22.0 1017.7 1.6
27/10:00pm S 11 17 - - - - 10 Partly cloudy - 22.1 1017.8 1.4
27/09:30pm SSE 11 18 - - - - 10 Partly cloudy - 22.0 1017.9 1.4
27/09:00pm SSE 12 19 - - - - 10 Cloudy - 22.2 1017.9 1.2
27/08:30pm SSE 9 15 - - - - 10 Partly cloudy - 22.2 1017.8 1.2
27/08:00pm S 10 16 - - - - 10 Partly cloudy - 21.8 1017.7 1.2
27/07:30pm S 9 14 - - - - 10 Partly cloudy - 21.9 1017.7 1.2
27/07:09pm SSE 7 10 - - - - 10 Partly cloudy - 21.7 1017.4 1.2
27/07:03pm SSE 7 9 - - - - 10 Partly cloudy - 21.4 1017.5 1.2
27/07:00pm SSE 7 9 - - - - 7 Partly cloudy - 21.5 1017.5 1.2
27/06:48pm SSE 9 10 - - - - 6 Partly cloudy - 21.6 1017.6 1.0
27/06:46pm SE 9 10 - - - - 8 Partly cloudy - 21.7 1017.6 1.0
27/06:34pm SE 7 10 - - - - 5 Partly cloudy - 21.6 1017.6 0.8
27/06:30pm SSE 5 9 - - - - 5 Partly cloudy - 21.7 1017.5 0.6
27/06:28pm SSE 5 7 - - - - 6 Partly cloudy - 21.7 1017.5 0.6
27/06:00pm SSE 11 16 - - - - 10 Cloudy Rain 22.0 1017.1 0.4
27/05:32pm SSE 13 17 - - - - 10 Partly cloudy - 22.2 1016.8 0.4
27/05:30pm SSE 13 17 - - - - 10 Partly cloudy - 22.1 1016.7 0.4
27/05:12pm SSE 11 18 - - - - 5 Partly cloudy - 22.5 1016.7 0.4
27/05:00pm SSE 8 11 - - - - 10 Partly cloudy - 23.7 1016.5 0.2
27/04:30pm SSE 10 19 - - - - 10 Partly cloudy - 24.3 1016.4 0.2
27/04:00pm S 9 15 - - - - 10 Partly cloudy - 24.9 1016.0 0.2
27/03:30pm S 9 14 - - - - 10 Partly cloudy - 24.2 1015.8 0.2
27/03:00pm SSE 12 16 - - - - 10 Cloudy - 23.6 1015.8 0.2
27/02:30pm S 10 16 - - - - 10 Partly cloudy - 24.5 1015.8 0.2
27/02:00pm S 13 20 - - - - 10 Partly cloudy - 24.3 1016.2 0.2
27/01:30pm SSE 17 22 - - - - 10 Partly cloudy - 24.5 1016.3 0.2
27/01:21pm SSE 15 26 - - - - 10 Partly cloudy - 25.0 1016.3 0.2

Other formats

Comma delimited format used in spreadsheet applications
http://www.bom.gov.au/fwo/IDQ60701/IDQ60701.94287.axf

JavaScript Object Notation format (JSON) in row-major order
http://www.bom.gov.au/fwo/IDQ60701/IDQ60701.94287.json

Data quality

Most of these data are generated automatically and are frequently updated. Quality checks on data are not normally performed. It is possible for incorrect values to appear. Refer to information at About Latest Weather Observations and please check the disclaimer before using these data.